createdAt,value
2022-12-19T00:01:37.460Z,-1.86
2022-12-19T00:04:07.999Z,-1.85
2022-12-19T00:06:36.494Z,-1.79
2022-12-19T00:09:03.636Z,-1.82
2022-12-19T00:11:31.937Z,-1.78
2022-12-19T00:13:59.656Z,-1.71
2022-12-19T00:16:29.154Z,-1.76
2022-12-19T00:19:01.346Z,-1.71
2022-12-19T00:21:30.317Z,-1.65
2022-12-19T00:23:56.960Z,-1.76
2022-12-19T00:26:23.310Z,-1.68
2022-12-19T00:28:53.112Z,-1.69
2022-12-19T00:31:20.422Z,-1.65
2022-12-19T00:33:48.057Z,-1.67
2022-12-19T00:36:22.835Z,-1.61
2022-12-19T00:38:51.557Z,-1.56
2022-12-19T00:41:19.431Z,-1.60
2022-12-19T00:43:46.550Z,-1.51
2022-12-19T00:46:15.482Z,-1.56
2022-12-19T00:48:42.960Z,-1.42
2022-12-19T00:51:17.933Z,-1.44
2022-12-19T00:53:44.952Z,-1.34
2022-12-19T00:56:16.737Z,-1.35
2022-12-19T00:58:46.878Z,-1.34
2022-12-19T01:01:37.927Z,-1.35
2022-12-19T01:06:57.788Z,-1.31
2022-12-19T01:09:31.457Z,-1.35
2022-12-19T01:12:16.948Z,-1.33
2022-12-19T01:14:43.563Z,-1.34
2022-12-19T01:17:10.100Z,-1.29
2022-12-19T01:19:41.938Z,-1.25
2022-12-19T01:22:10.669Z,-1.31
2022-12-19T01:24:40.737Z,-1.33
2022-12-19T01:27:07.187Z,-1.29
2022-12-19T01:29:33.757Z,-1.27
2022-12-19T01:32:03.327Z,-1.30
2022-12-19T01:34:30.178Z,-1.21
2022-12-19T01:36:56.650Z,-1.25
2022-12-19T01:39:26.014Z,-1.19
2022-12-19T01:41:55.598Z,-1.16
2022-12-19T01:44:24.687Z,-1.19
2022-12-19T01:46:54.085Z,-1.18
2022-12-19T01:49:28.130Z,-1.11
2022-12-19T01:51:58.583Z,-1.10
2022-12-19T01:54:34.678Z,-1.18
2022-12-19T01:57:02.751Z,-1.12
2022-12-19T01:59:34.800Z,-1.13
2022-12-19T02:02:11.427Z,-1.19
2022-12-19T02:04:43.999Z,-1.10
2022-12-19T02:07:16.367Z,-1.15
2022-12-19T02:09:46.742Z,-1.08
2022-12-19T02:12:13.679Z,-1.09
2022-12-19T02:14:41.465Z,-1.04
2022-12-19T02:17:14.476Z,-0.99
2022-12-19T02:20:11.415Z,-1.00
2022-12-19T02:22:46.969Z,-0.99
2022-12-19T02:25:22.505Z,-1.02
2022-12-19T02:27:58.927Z,-1.06
2022-12-19T02:30:40.564Z,-1.05
2022-12-19T02:33:17.972Z,-1.08
2022-12-19T02:35:51.376Z,-1.14
2022-12-19T02:38:37.035Z,-1.06
2022-12-19T02:41:06.424Z,-1.08
2022-12-19T02:43:38.868Z,-1.11
2022-12-19T02:46:06.569Z,-1.10
2022-12-19T02:48:33.936Z,-1.12
2022-12-19T02:51:00.507Z,-1.14
2022-12-19T02:53:26.934Z,-1.13
2022-12-19T02:56:19.899Z,-1.13
2022-12-19T02:58:49.267Z,-1.01
2022-12-19T03:01:29.578Z,-1.03
2022-12-19T03:04:11.227Z,-1.02
2022-12-19T03:06:52.710Z,-1.03
2022-12-19T03:09:45.557Z,-0.99
2022-12-19T03:12:21.257Z,-0.99
2022-12-19T03:14:49.205Z,-0.96
2022-12-19T03:17:19.151Z,-0.97
2022-12-19T03:19:46.104Z,-0.91
2022-12-19T03:22:12.874Z,-0.83
2022-12-19T03:24:39.680Z,-0.82
2022-12-19T03:27:36.002Z,-0.80
2022-12-19T03:30:10.194Z,-0.76
2022-12-19T03:32:39.312Z,-0.70
2022-12-19T03:35:09.878Z,-0.69
2022-12-19T03:37:38.520Z,-0.70
2022-12-19T03:40:12.766Z,-0.62
2022-12-19T03:42:59.871Z,-0.59
2022-12-19T03:45:40.121Z,-0.50
2022-12-19T03:48:46.293Z,-0.53
2022-12-19T03:51:42.140Z,-0.55
2022-12-19T03:54:33.163Z,-0.50
2022-12-19T03:57:21.110Z,-0.48
2022-12-19T03:59:56.725Z,-0.50
2022-12-19T04:02:24.309Z,-0.42
2022-12-19T04:04:55.830Z,-0.33
2022-12-19T04:07:23.672Z,-0.29
2022-12-19T04:09:51.563Z,-0.39
2022-12-19T04:12:21.353Z,-0.39
2022-12-19T04:14:49.491Z,-0.37
2022-12-19T04:17:34.600Z,-0.36
2022-12-19T04:20:12.074Z,-0.30
2022-12-19T04:22:51.202Z,-0.28
2022-12-19T04:25:29.222Z,-0.34
2022-12-19T04:28:02.491Z,-0.28
2022-12-19T04:30:29.399Z,-0.20
2022-12-19T04:32:56.710Z,-0.19
2022-12-19T04:35:23.211Z,-0.13
2022-12-19T04:37:49.673Z,-0.13
2022-12-19T04:40:16.229Z,-0.11
2022-12-19T04:42:42.650Z,-0.06
2022-12-19T04:45:09.416Z,0.01
2022-12-19T04:47:36.018Z,0.08
2022-12-19T04:50:02.389Z,0.03
2022-12-19T04:52:28.812Z,0.07
2022-12-19T04:54:55.236Z,0.09
2022-12-19T04:57:21.863Z,0.06
2022-12-19T04:59:48.247Z,0.09
2022-12-19T05:02:14.843Z,0.10
2022-12-19T05:04:41.296Z,0.18
2022-12-19T05:07:07.731Z,0.17
2022-12-19T05:09:34.148Z,0.20
2022-12-19T05:12:00.593Z,0.21
2022-12-19T05:14:27.753Z,0.22
2022-12-19T05:17:00.443Z,0.22
2022-12-19T05:19:28.288Z,0.23
2022-12-19T05:21:54.701Z,0.26
2022-12-19T05:24:21.124Z,0.27
2022-12-19T05:26:49.105Z,0.22
2022-12-19T05:29:16.183Z,0.24
2022-12-19T05:31:43.245Z,0.32
2022-12-19T05:34:09.848Z,0.33
2022-12-19T05:36:36.298Z,0.31
2022-12-19T05:39:02.824Z,0.37
2022-12-19T05:41:29.304Z,0.33
2022-12-19T05:43:56.491Z,0.41
2022-12-19T05:46:24.004Z,0.35
2022-12-19T05:48:51.315Z,0.42
2022-12-19T05:51:17.779Z,0.41
2022-12-19T05:53:44.706Z,0.40
2022-12-19T05:56:21.561Z,0.43
2022-12-19T05:58:48.729Z,0.47
2022-12-19T06:01:24.542Z,0.43
2022-12-19T06:03:52.029Z,0.51
2022-12-19T06:06:24.430Z,0.50
2022-12-19T06:08:55.652Z,0.50
2022-12-19T06:11:22.836Z,0.44
2022-12-19T06:13:49.543Z,0.49
2022-12-19T06:16:19.073Z,0.47
2022-12-19T06:18:46.219Z,0.48
2022-12-19T06:21:31.049Z,0.46
2022-12-19T06:23:57.492Z,0.45
2022-12-19T06:26:24.122Z,0.51
2022-12-19T06:28:52.045Z,0.55
2022-12-19T06:31:20.904Z,0.57
2022-12-19T06:33:47.553Z,0.53
2022-12-19T06:36:23.379Z,0.49
2022-12-19T06:38:50.901Z,0.54
2022-12-19T06:41:37.033Z,0.50
2022-12-19T06:44:06.064Z,0.62
2022-12-19T06:46:33.059Z,0.52
2022-12-19T06:48:59.638Z,0.56
2022-12-19T06:51:26.309Z,0.59
2022-12-19T06:53:52.747Z,0.53
2022-12-19T06:56:20.167Z,0.54
2022-12-19T06:58:47.843Z,0.49
2022-12-19T07:01:29.057Z,0.62
2022-12-19T07:03:55.670Z,0.62
2022-12-19T07:06:22.846Z,0.63
2022-12-19T07:08:49.299Z,0.70
2022-12-19T07:11:15.747Z,0.74
2022-12-19T07:13:42.113Z,0.69
2022-12-19T07:16:09.172Z,0.68
2022-12-19T07:18:39.692Z,0.72
2022-12-19T07:21:07.549Z,0.72
2022-12-19T07:23:35.161Z,0.74
2022-12-19T07:26:01.678Z,0.76
2022-12-19T07:28:28.337Z,0.74
2022-12-19T07:30:54.752Z,0.81
2022-12-19T07:33:21.970Z,0.79
2022-12-19T07:35:48.691Z,0.75
2022-12-19T07:38:15.230Z,0.78
2022-12-19T07:40:41.759Z,0.82
2022-12-19T07:43:08.210Z,0.82
2022-12-19T07:45:37.833Z,0.88
2022-12-19T07:48:06.176Z,0.86
2022-12-19T07:50:32.980Z,0.90
2022-12-19T07:53:00.145Z,0.82
2022-12-19T07:55:27.039Z,0.87
2022-12-19T07:57:55.142Z,0.85
2022-12-19T08:00:22.157Z,0.84
2022-12-19T08:02:48.639Z,0.84
2022-12-19T08:05:15.833Z,0.82
2022-12-19T08:07:42.212Z,0.89
2022-12-19T08:10:11.283Z,0.90
2022-12-19T08:12:38.129Z,0.92
2022-12-19T08:15:05.768Z,0.92
2022-12-19T08:17:32.245Z,0.93
2022-12-19T08:19:58.685Z,0.98
2022-12-19T08:22:25.104Z,0.89
2022-12-19T08:24:51.581Z,0.98
2022-12-19T08:27:18.668Z,0.95
2022-12-19T08:29:45.122Z,0.97
2022-12-19T08:32:15.620Z,1.03
2022-12-19T08:34:45.190Z,1.04
2022-12-19T08:37:11.558Z,1.05
2022-12-19T08:39:37.915Z,1.06
2022-12-19T08:42:04.464Z,1.13
2022-12-19T08:44:30.934Z,1.11
2022-12-19T08:46:57.324Z,1.17
2022-12-19T08:49:23.732Z,1.18
2022-12-19T08:51:50.162Z,1.15
2022-12-19T08:54:16.637Z,1.11
2022-12-19T08:56:46.361Z,1.16
2022-12-19T08:59:21.444Z,1.19
2022-12-19T09:01:58.323Z,1.22
2022-12-19T09:05:57.792Z,1.31
2022-12-19T09:07:11.247Z,1.27
2022-12-19T09:09:41.771Z,1.31
2022-12-19T09:12:08.180Z,1.28
2022-12-19T09:14:35.651Z,1.25
2022-12-19T09:17:02.617Z,1.39
2022-12-19T09:19:31.331Z,1.33
2022-12-19T09:21:57.773Z,1.34
2022-12-19T09:24:24.229Z,1.37
2022-12-19T09:26:50.630Z,1.38
2022-12-19T09:29:20.410Z,1.36
2022-12-19T09:31:50.024Z,1.36
2022-12-19T09:34:22.667Z,1.35
2022-12-19T09:36:50.558Z,1.35
2022-12-19T09:39:18.117Z,1.32
2022-12-19T09:42:03.454Z,1.34
2022-12-19T09:44:49.121Z,1.28
2022-12-19T09:47:23.953Z,1.27
2022-12-19T09:49:52.236Z,1.29
2022-12-19T09:52:25.800Z,1.30
2022-12-19T09:54:58.373Z,1.30
2022-12-19T09:57:43.676Z,1.30
2022-12-19T10:00:13.710Z,1.32
2022-12-19T10:02:58.556Z,1.38
2022-12-19T10:05:57.708Z,1.41
2022-12-19T10:08:27.824Z,1.46
2022-12-19T10:12:43.487Z,1.42
2022-12-19T10:14:12.455Z,1.41
2022-12-19T10:17:22.108Z,1.50
2022-12-19T10:19:52.631Z,1.49
2022-12-19T10:22:37.912Z,1.53
2022-12-19T10:25:36.192Z,1.50
2022-12-19T10:28:11.863Z,1.54
2022-12-19T10:30:45.134Z,1.57
2022-12-19T10:33:39.820Z,1.65
2022-12-19T10:36:10.476Z,1.67
2022-12-19T10:38:51.109Z,1.63
2022-12-19T10:41:24.767Z,1.66
2022-12-19T10:44:05.747Z,1.68
2022-12-19T10:46:40.180Z,1.63
2022-12-19T10:49:24.737Z,1.69
2022-12-19T10:52:10.341Z,1.75
2022-12-19T10:54:37.911Z,1.84
2022-12-19T10:57:22.500Z,1.77
2022-12-19T10:59:59.327Z,1.84
2022-12-19T11:02:37.782Z,1.85
2022-12-19T11:05:20.735Z,1.93
2022-12-19T11:08:07.073Z,1.93
2022-12-19T11:11:55.184Z,1.95
2022-12-19T11:19:22.438Z,1.97
2022-12-19T11:21:40.786Z,1.91
2022-12-19T11:29:27.342Z,1.87
2022-12-19T11:29:32.004Z,1.88
2022-12-19T11:30:06.373Z,1.87
2022-12-19T11:30:41.128Z,1.83
2022-12-19T11:34:05.972Z,1.90
2022-12-19T11:37:04.892Z,1.85
2022-12-19T11:39:45.355Z,1.81
2022-12-19T11:42:25.541Z,1.83
2022-12-19T11:45:10.681Z,1.84
2022-12-19T11:47:45.563Z,1.85
2022-12-19T11:50:22.154Z,1.83
2022-12-19T11:53:22.581Z,1.82
2022-12-19T11:56:15.775Z,1.87
2022-12-19T11:58:49.491Z,1.89
2022-12-19T12:01:51.188Z,2.00
2022-12-19T12:04:54.821Z,2.00
2022-12-19T12:08:22.129Z,2.08
2022-12-19T12:13:18.233Z,2.12
2022-12-19T12:24:18.205Z,2.16
2022-12-19T12:29:15.779Z,2.17
2022-12-19T12:31:13.060Z,2.18
2022-12-19T12:31:14.693Z,2.18
2022-12-19T12:31:52.581Z,2.17
2022-12-19T12:32:01.907Z,2.20
2022-12-19T12:35:29.214Z,2.24
2022-12-19T12:39:01.951Z,2.27
2022-12-19T12:41:53.057Z,2.32
2022-12-19T12:44:30.692Z,2.34
2022-12-19T12:47:06.619Z,2.35
2022-12-19T12:50:36.302Z,2.38
2022-12-19T12:53:07.292Z,2.37
2022-12-19T12:55:40.095Z,2.40
2022-12-19T12:58:44.869Z,2.41
2022-12-19T13:01:29.707Z,2.39
2022-12-19T13:03:58.902Z,2.46
2022-12-19T13:06:37.722Z,2.43
2022-12-19T13:09:42.914Z,2.48
2022-12-19T13:12:45.376Z,2.52
2022-12-19T13:15:34.284Z,2.55
2022-12-19T13:18:09.203Z,2.59
2022-12-19T13:20:47.443Z,2.58
2022-12-19T13:23:33.990Z,2.65
2022-12-19T13:26:00.530Z,2.67
2022-12-19T13:28:36.029Z,2.66
2022-12-19T13:31:18.885Z,2.64
2022-12-19T13:33:57.065Z,2.65
2022-12-19T13:39:51.026Z,2.65
2022-12-19T13:40:10.832Z,2.67
2022-12-19T13:43:11.464Z,2.58
2022-12-19T13:45:40.658Z,2.59
2022-12-19T13:48:15.187Z,2.58
2022-12-19T13:50:42.808Z,2.57
2022-12-19T13:53:17.757Z,2.62
2022-12-19T13:55:44.738Z,2.62
2022-12-19T13:58:28.987Z,2.56
2022-12-19T14:01:01.115Z,2.58
2022-12-19T14:03:39.053Z,2.61
2022-12-19T14:06:17.831Z,2.61
2022-12-19T14:08:47.639Z,2.61
2022-12-19T14:13:41.549Z,2.63
2022-12-19T14:15:13.055Z,2.55
2022-12-19T14:17:42.999Z,2.60
2022-12-19T14:22:02.139Z,2.58
2022-12-19T14:23:14.577Z,2.57
2022-12-19T14:28:19.656Z,2.60
2022-12-19T14:28:55.106Z,2.57
2022-12-19T14:31:23.383Z,2.59
2022-12-19T14:34:19.051Z,2.63
2022-12-19T14:36:40.786Z,2.60
2022-12-19T14:39:23.727Z,2.48
2022-12-19T14:42:31.558Z,2.53
2022-12-19T14:52:25.092Z,2.61
2022-12-19T14:54:10.031Z,2.51
2022-12-19T14:54:31.031Z,2.50
2022-12-19T14:57:25.626Z,2.52
2022-12-19T15:01:07.745Z,2.57
2022-12-19T15:03:18.302Z,2.68
2022-12-19T15:05:45.138Z,2.79
2022-12-19T15:08:12.091Z,2.81
2022-12-19T15:11:00.907Z,2.82
2022-12-19T15:14:47.629Z,2.90
2022-12-19T15:16:30.252Z,2.97
2022-12-19T15:18:59.093Z,2.94
2022-12-19T15:21:26.499Z,2.95
2022-12-19T15:23:52.982Z,3.00
2022-12-19T15:26:28.406Z,3.04
2022-12-19T15:28:57.150Z,3.02
2022-12-19T15:31:32.891Z,3.15
2022-12-19T15:34:33.096Z,3.22
2022-12-19T15:36:45.885Z,3.17
2022-12-19T15:39:12.287Z,3.17
2022-12-19T15:41:38.702Z,3.05
2022-12-19T15:44:10.064Z,2.92
2022-12-19T15:46:38.845Z,2.95
2022-12-19T15:49:27.542Z,2.84
2022-12-19T15:51:53.977Z,2.83
2022-12-19T15:57:30.006Z,2.81
2022-12-19T16:00:00.220Z,2.87
2022-12-19T16:02:42.728Z,2.82
2022-12-19T16:05:14.984Z,2.90
2022-12-19T16:07:41.650Z,2.96
2022-12-19T16:10:10.928Z,2.95
2022-12-19T16:12:43.344Z,3.03
2022-12-19T16:15:26.072Z,3.02
2022-12-19T16:17:53.186Z,3.06
2022-12-19T16:20:39.819Z,3.04
2022-12-19T16:23:07.927Z,3.09
2022-12-19T16:25:43.271Z,3.07
2022-12-19T16:28:26.424Z,3.07
2022-12-19T16:30:53.176Z,3.00
2022-12-19T16:33:26.140Z,3.08
2022-12-19T16:36:04.011Z,3.08
2022-12-19T16:38:31.431Z,3.10
2022-12-19T16:40:57.830Z,3.16
2022-12-19T16:43:35.608Z,3.17
2022-12-19T16:46:05.586Z,3.09
2022-12-19T16:48:33.986Z,3.09
2022-12-19T16:51:00.491Z,3.13
2022-12-19T16:53:27.312Z,3.19
2022-12-19T16:55:55.576Z,3.15
2022-12-19T16:58:27.376Z,3.17
2022-12-19T17:00:55.311Z,3.18
2022-12-19T17:03:37.331Z,3.29
2022-12-19T17:06:04.357Z,3.40
2022-12-19T17:08:32.312Z,3.36
2022-12-19T17:10:58.801Z,3.48
2022-12-19T17:13:25.532Z,3.51
2022-12-19T17:15:56.774Z,3.63
2022-12-19T17:18:38.271Z,3.65
2022-12-19T17:21:04.743Z,3.72
2022-12-19T17:23:32.522Z,3.80
2022-12-19T17:26:00.306Z,3.86
2022-12-19T17:28:28.170Z,3.85
2022-12-19T17:30:59.888Z,3.86
2022-12-19T17:33:33.280Z,3.82
2022-12-19T17:36:01.528Z,3.79
2022-12-19T17:38:28.128Z,3.73
2022-12-19T17:40:54.676Z,3.89
2022-12-19T17:43:21.061Z,3.96
2022-12-19T17:45:47.838Z,3.91
2022-12-19T17:48:34.519Z,3.96
2022-12-19T17:51:01.000Z,4.05
2022-12-19T17:53:27.511Z,4.06
2022-12-19T17:55:53.913Z,4.10
2022-12-19T17:58:21.578Z,4.23
2022-12-19T18:00:49.719Z,4.27
2022-12-19T18:03:24.831Z,4.27
2022-12-19T18:05:54.152Z,4.38
2022-12-19T18:08:30.558Z,4.35
2022-12-19T18:10:59.733Z,4.42
2022-12-19T18:13:27.865Z,4.57
2022-12-19T18:16:00.046Z,4.62
2022-12-19T18:18:45.745Z,4.65
2022-12-19T18:21:19.302Z,4.72
2022-12-19T18:23:46.324Z,4.81
2022-12-19T18:26:12.920Z,4.82
2022-12-19T18:28:40.325Z,4.91
2022-12-19T18:31:14.807Z,5.00
2022-12-19T18:33:43.436Z,5.06
2022-12-19T18:36:17.737Z,5.11
2022-12-19T18:38:44.425Z,5.15
2022-12-19T18:41:12.284Z,5.22
2022-12-19T18:43:38.732Z,5.17
2022-12-19T18:46:05.741Z,5.19
2022-12-19T18:48:36.800Z,5.24
2022-12-19T18:51:04.750Z,5.26
2022-12-19T18:53:35.269Z,5.28
2022-12-19T18:56:04.183Z,5.28
2022-12-19T18:58:30.981Z,5.32
2022-12-19T19:00:59.872Z,5.42
2022-12-19T19:03:29.737Z,5.47
2022-12-19T19:05:56.690Z,5.47
2022-12-19T19:08:26.430Z,5.50
2022-12-19T19:10:54.694Z,5.58
2022-12-19T19:13:22.869Z,5.56
2022-12-19T19:16:05.424Z,5.58
2022-12-19T19:18:36.477Z,5.61
2022-12-19T19:21:03.799Z,5.58
2022-12-19T19:23:37.908Z,5.53
2022-12-19T19:26:05.038Z,5.51
2022-12-19T19:28:31.477Z,5.61
2022-12-19T19:31:00.064Z,5.66
2022-12-19T19:33:40.813Z,5.73
2022-12-19T19:36:13.360Z,5.75
2022-12-19T19:38:46.185Z,5.76
2022-12-19T19:41:12.772Z,5.77
2022-12-19T19:43:39.519Z,5.85
2022-12-19T19:46:06.056Z,5.91
2022-12-19T19:48:33.180Z,5.94
2022-12-19T19:50:59.656Z,5.93
2022-12-19T19:53:26.176Z,6.01
2022-12-19T19:56:01.312Z,6.06
2022-12-19T19:58:28.379Z,6.07
2022-12-19T20:00:54.935Z,6.11
2022-12-19T20:03:23.327Z,6.09
2022-12-19T20:05:50.411Z,6.15
2022-12-19T20:08:17.252Z,6.17
2022-12-19T20:10:43.713Z,6.19
2022-12-19T20:13:10.998Z,6.19
2022-12-19T20:15:37.498Z,6.18
2022-12-19T20:18:03.991Z,6.20
2022-12-19T20:20:32.607Z,6.06
2022-12-19T20:22:59.113Z,6.22
2022-12-19T20:25:25.457Z,6.16
2022-12-19T20:27:51.838Z,6.15
2022-12-19T20:30:18.569Z,6.20
2022-12-19T20:32:45.109Z,6.32
2022-12-19T20:35:14.783Z,6.43
2022-12-19T20:37:41.987Z,6.43
2022-12-19T20:40:09.283Z,6.48
2022-12-19T20:42:35.834Z,6.55
2022-12-19T20:45:02.349Z,6.53
2022-12-19T20:47:28.845Z,6.46
2022-12-19T20:49:55.356Z,6.53
2022-12-19T20:52:22.049Z,6.49
2022-12-19T20:54:48.526Z,6.46
2022-12-19T20:57:14.964Z,6.55
2022-12-19T20:59:41.342Z,6.68
2022-12-19T21:02:07.905Z,6.64
2022-12-19T21:04:34.791Z,6.66
2022-12-19T21:07:01.438Z,6.69
2022-12-19T21:09:28.017Z,6.65
2022-12-19T21:11:54.594Z,6.69
2022-12-19T21:14:21.121Z,6.63
2022-12-19T21:16:52.188Z,6.69
2022-12-19T21:19:19.214Z,6.69
2022-12-19T21:21:45.735Z,6.72
2022-12-19T21:24:12.878Z,6.70
2022-12-19T21:26:39.457Z,6.72
2022-12-19T21:29:06.048Z,6.86
2022-12-19T21:31:32.631Z,6.83
2022-12-19T21:34:01.552Z,6.93
2022-12-19T21:36:30.103Z,6.86
2022-12-19T21:38:58.372Z,6.90
2022-12-19T21:41:24.864Z,6.85
2022-12-19T21:43:53.876Z,6.99
2022-12-19T21:46:23.571Z,6.95
2022-12-19T21:48:52.205Z,6.94
2022-12-19T21:51:21.675Z,7.02
2022-12-19T21:53:48.498Z,6.99
2022-12-19T21:56:30.297Z,7.03
2022-12-19T21:58:59.455Z,7.01
2022-12-19T22:01:26.911Z,6.98
2022-12-19T22:04:01.141Z,7.05
2022-12-19T22:06:31.668Z,7.00
2022-12-19T22:08:59.491Z,7.03
2022-12-19T22:11:27.448Z,7.05
2022-12-19T22:13:54.354Z,7.06
2022-12-19T22:16:20.854Z,7.12
2022-12-19T22:18:47.528Z,7.14
2022-12-19T22:21:15.113Z,7.22
2022-12-19T22:23:42.326Z,7.22
2022-12-19T22:26:18.198Z,7.21
2022-12-19T22:28:47.525Z,7.21
2022-12-19T22:31:20.130Z,7.17
2022-12-19T22:33:48.572Z,7.24
2022-12-19T22:36:17.514Z,7.32
2022-12-19T22:38:48.758Z,7.29
2022-12-19T22:41:17.115Z,7.29
2022-12-19T22:43:43.900Z,7.33
2022-12-19T22:46:14.825Z,7.31
2022-12-19T22:48:42.399Z,7.31
2022-12-19T22:51:09.818Z,7.42
2022-12-19T22:53:37.742Z,7.46
2022-12-19T22:56:07.905Z,7.39
2022-12-19T22:58:35.585Z,7.33
2022-12-19T23:01:12.033Z,7.48
2022-12-19T23:03:38.560Z,7.45
2022-12-19T23:06:05.090Z,7.38
2022-12-19T23:08:31.618Z,7.41
2022-12-19T23:10:58.372Z,7.45
2022-12-19T23:13:25.222Z,7.37
2022-12-19T23:15:52.074Z,7.32
2022-12-19T23:18:18.648Z,7.39
2022-12-19T23:20:45.145Z,7.40
2022-12-19T23:23:11.571Z,7.39
2022-12-19T23:25:41.937Z,7.34
2022-12-19T23:28:09.550Z,7.24
2022-12-19T23:30:36.871Z,7.23
2022-12-19T23:33:04.160Z,7.27
2022-12-19T23:35:33.062Z,7.25
2022-12-19T23:37:59.489Z,7.38
2022-12-19T23:40:25.904Z,7.40
2022-12-19T23:42:52.506Z,7.38
2022-12-19T23:45:18.957Z,7.38
2022-12-19T23:47:46.651Z,7.44
2022-12-19T23:50:13.027Z,7.43
2022-12-19T23:52:39.510Z,7.27
2022-12-19T23:55:06.531Z,7.23
2022-12-19T23:57:32.932Z,7.21
2022-12-19T23:59:59.549Z,7.16
